Terminal Aerodrome Forecast
Issued by NWS

Home | Current Version | Previous Version | Text Only | Print | Product List | Glossary On
Versions: 1 2 3 4 5 6 7 8 9 10 11 12 13 14 15 16
000
FTUS44 KJAN 310520
TAFHKS
TAF
KHKS 310520Z 3106/0106 30010G20KT 6SM -TSRA BR BKN025CB
     FM310630 30006KT 6SM -RA BR SCT040 OVC100
     FM310800 00000KT 5SM BR OVC100
     FM311400 29004KT P6SM SCT030 BKN250
     FM311800 26005KT P6SM VCTS SCT050CB
     FM010200 06003KT P6SM BKN250=

USA.gov is the U.S. government's official web portal to all federal, state and local government web resources and services.